Main page
METAR-TAF:

METAR-TAF

Airports :

Inverness Airport

Inverness, Scotland

latitude: 57-32N, longitude: 004-03W, elevation: 9 m

Current weather observation

The report was made 35 minutes ago, at 19:20 UTC
Wind 18 kt from the West/Southwest with gusts up to 28 kt
Temperature 4°C
Humidity 87%
Pressure 1008 hPa
Visibility 10 km or more
Few clouds at a height of 800 ft
Scattered clouds at a height of 3300 ft
light rain showers

METAR: EGPE 291920Z 25018G28KT 9999 -SHRA FEW008 SCT033 04/02 Q1008 RESHRA

Time: 19:55 (19:55 UTC)

Forecast

The report was made 2 hours and 54 minutes ago, at 17:01 UTC
Forecast valid from 29 at 18 UTC to 30 at 03 UTC
Wind 19 kt from the West
Visibility 10 km or more
Scattered clouds at a height of 3000 ft
Temporary
from 29 at 18 UTC to 30 at 03 UTC
Wind 22 kt from the West with gusts up to 34 kt
Probability 40% :
Temporary
from 29 at 18 UTC to 30 at 03 UTC
Visibility: 6000 m
rain showers

TAF: EGPE 291701Z 2918/3003 26019KT 9999 SCT030 TEMPO 2918/3003 27022G34KT PROB40 TEMPO 2918/3003 6000 SHRA

Weather observations and forecasts of more than 4000 airports (METAR and TAF reports).

The available stations are represented by yellow and red dots on the map.

Hover mouse over dot to see the name of the station.

Then click to see weather observations and forecasts.

To change the map : click on the green buttons with a black cross to zoom in, on the green button with a dash to zoom out, or on the green arrows for adjacent maps.


METAR-TAF: